Kearneysville, West Virginia
Current Conditions -  °F | °C
As of 5:53 AM on Friday 19 Dec 2014 (Local Time) from KMRB Reporting Station
Overcast Overcast  
Wind Chill: 27°   Ceiling: 3100
Heat Index: 34°   Visibility: 10mi
Dew Point: 19°   Wind: 9mph
Humidity: 54%   Direction: 310°NW
Pressure: 30.12"   Gusts: NA
Location:  39.39°N, 77.89°W
Report Text: KMRB 191053Z AUTO 31008KT 10SM OVC031 01/M07 A3012 RMK AO2 SLP203 T00111072 TSNO
Loading
Personal Weather Stations






























Interactive Weather Map New forecast layout! Learn more

10-Day Weather Forecast

Advertisements
Track Severe Weather on mobile